Time;durP1;ratioP1;P1;durP2;ratioP2;P2;SDS_P1;SDS_P2;PMS_P1;PMS_P2;Temp;Humidity;BMP_temperature;BMP_pressure;BME280_temperature;BME280_humidity;BME280_pressure;Samples;Min_cycle;Max_cycle;Signal;HPM_P1;HPM_P2
2024/04/24 00:03:31;;;;;;;1.95;1.38;;;1.40;99.90;;;;;;22709242;26;20427;-43
2024/04/24 00:13:33;;;;;;;1.83;1.27;;;1.40;99.90;;;;;;22676188;26;20115;-43
2024/04/24 00:23:35;;;;;;;1.30;1.00;;;1.40;99.90;;;;;;22675502;26;20030;-43
2024/04/24 00:33:36;;;;;;;1.30;0.90;;;1.40;99.90;;;;;;22644649;26;20050;-43
2024/04/24 00:43:38;;;;;;;3.05;1.05;;;1.50;99.90;;;;;;22691724;26;20030;-43
2024/04/24 00:53:41;;;;;;;1.98;1.38;;;1.50;99.90;;;;;;22344056;26;19999;-44
2024/04/24 01:03:46;;;;;;;1.90;1.10;;;1.40;99.90;;;;;;22393947;26;20169;-44
2024/04/24 01:13:48;;;;;;;1.40;0.93;;;1.30;99.90;;;;;;22288545;26;20046;-44
2024/04/24 01:24:15;;;;;;;1.33;0.90;;;1.30;99.90;;;;;;22308238;26;20897;-44
2024/04/24 01:34:17;;;;;;;2.40;0.80;;;1.20;99.90;;;;;;22363415;26;19999;-44
2024/04/24 01:44:19;;;;;;;1.05;0.60;;;1.10;99.90;;;;;;22608720;26;20027;-43
2024/04/24 01:54:21;;;;;;;1.00;0.68;;;1.20;99.90;;;;;;22623394;26;20037;-44
2024/04/24 02:04:22;;;;;;;1.17;0.77;;;1.00;99.90;;;;;;22666901;26;20022;-44
2024/04/24 02:14:24;;;;;;;1.13;0.70;;;1.00;99.90;;;;;;22668954;26;20134;-43
2024/04/24 02:35:06;;;;;;;2.38;0.90;;;1.10;99.90;;;;;;22195414;26;20004;-45
2024/04/24 02:45:08;;;;;;;1.90;0.93;;;1.20;99.90;;;;;;22149233;26;20005;-44
2024/04/24 02:55:09;;;;;;;1.27;1.00;;;1.10;99.90;;;;;;22066419;26;20075;-45
2024/04/24 03:05:11;;;;;;;1.50;1.00;;;0.90;99.90;;;;;;22293986;26;20070;-43
2024/04/24 03:15:16;;;;;;;1.65;1.00;;;1.00;99.90;;;;;;22600533;26;20031;-46
2024/04/24 03:25:18;;;;;;;2.00;1.08;;;1.10;99.90;;;;;;22644805;26;20046;-43
2024/04/24 03:35:20;;;;;;;1.67;0.93;;;1.10;99.90;;;;;;22585085;26;20050;-43
2024/04/24 03:45:22;;;;;;;1.38;0.93;;;1.10;99.90;;;;;;22707500;26;20077;-43
2024/04/24 03:55:24;;;;;;;1.40;0.73;;;1.10;99.90;;;;;;22646101;26;20434;-44
2024/04/24 04:05:26;;;;;;;1.20;0.70;;;1.10;99.90;;;;;;22709333;26;20158;-44
2024/04/24 04:15:27;;;;;;;1.65;0.80;;;1.10;99.90;;;;;;22708638;26;20033;-46
2024/04/24 04:25:29;;;;;;;1.25;0.90;;;1.10;99.90;;;;;;22649572;26;20128;-43
2024/04/24 04:35:31;;;;;;;1.58;1.00;;;1.10;99.90;;;;;;22570317;26;20034;-44
2024/04/24 04:45:33;;;;;;;1.77;0.95;;;1.20;99.90;;;;;;22605182;26;20090;-43
2024/04/24 04:55:35;;;;;;;1.20;0.80;;;1.30;99.90;;;;;;22644735;26;20026;-43
2024/04/24 05:05:36;;;;;;;1.60;0.90;;;1.30;99.90;;;;;;22579535;26;20047;-43
2024/04/24 05:15:39;;;;;;;1.23;0.80;;;1.40;99.90;;;;;;22553536;26;20101;-43
2024/04/24 05:25:40;;;;;;;1.48;0.77;;;1.50;99.90;;;;;;22609272;26;20034;-44
2024/04/24 05:35:43;;;;;;;1.40;0.80;;;1.70;99.90;;;;;;22535884;26;20026;-43
2024/04/24 05:45:44;;;;;;;1.00;0.63;;;1.90;99.90;;;;;;22703185;26;20034;-45
2024/04/24 05:55:46;;;;;;;1.13;0.90;;;2.40;99.90;;;;;;22652703;26;20030;-43
2024/04/24 06:05:48;;;;;;;1.15;0.70;;;2.60;99.90;;;;;;22590874;26;20034;-43
2024/04/24 06:15:50;;;;;;;0.90;0.70;;;2.50;99.90;;;;;;22584140;26;20031;-46
2024/04/24 06:25:52;;;;;;;1.20;0.80;;;2.60;99.90;;;;;;22552927;26;20054;-46
2024/04/24 06:35:53;;;;;;;0.93;0.70;;;2.60;99.90;;;;;;22552478;26;20481;-46
2024/04/24 06:45:55;;;;;;;1.60;0.77;;;2.20;99.90;;;;;;22551121;26;20097;-46
2024/04/24 06:56:02;;;;;;;3.38;0.90;;;2.20;99.90;;;;;;22567729;26;20039;-44
2024/04/24 07:06:04;;;;;;;1.38;1.00;;;5.40;97.40;;;;;;22581352;26;20050;-37
2024/04/24 07:16:06;;;;;;;0.60;0.40;;;4.40;98.00;;;;;;22680999;26;20026;-40
2024/04/24 07:26:08;;;;;;;0.60;0.50;;;6.30;97.00;;;;;;22612592;26;20023;-41
2024/04/24 07:36:10;;;;;;;0.60;0.55;;;9.60;91.90;;;;;;22531725;26;20026;-41
2024/04/24 07:46:12;;;;;;;1.02;0.60;;;10.00;89.70;;;;;;22555352;26;20031;-40
2024/04/24 07:56:14;;;;;;;1.67;0.60;;;7.50;90.30;;;;;;22563852;26;20669;-40
2024/04/24 08:06:17;;;;;;;0.90;0.70;;;8.30;87.50;;;;;;22583984;26;20026;-39
2024/04/24 08:16:19;;;;;;;0.52;0.50;;;6.80;90.90;;;;;;22250282;26;20004;-40
2024/04/24 08:26:22;;;;;;;1.08;0.63;;;8.60;89.40;;;;;;22130959;26;20005;-39
2024/04/24 08:36:26;;;;;;;1.52;1.00;;;9.40;84.50;;;;;;22079497;26;20005;-39
2024/04/24 08:46:31;;;;;;;1.20;0.90;;;7.70;90.50;;;;;;22456939;26;20038;-40
2024/04/24 08:56:39;;;;;;;2.83;2.25;;;8.20;89.40;;;;;;22558023;26;20034;-38
2024/04/24 09:06:42;;;;;;;6.80;5.55;;;8.50;94.20;;;;;;22557463;26;20028;-38
2024/04/24 09:16:45;;;;;;;4.93;3.63;;;9.10;96.40;;;;;;22551552;26;20035;-38
2024/04/24 09:26:48;;;;;;;7.78;5.80;;;11.90;92.80;;;;;;22554758;26;20046;-39
2024/04/24 09:36:50;;;;;;;7.28;6.30;;;14.80;92.50;;;;;;22546909;26;21004;-38
2024/04/24 09:46:52;;;;;;;7.07;5.97;;;15.10;91.90;;;;;;22548129;26;20030;-39
2024/04/24 09:56:58;;;;;;;11.20;9.40;;;15.30;90.50;;;;;;22551782;26;20492;-40
2024/04/24 10:07:02;;;;;;;9.48;8.48;;;14.10;93.20;;;;;;22551399;26;20483;-47
2024/04/24 10:17:09;;;;;;;8.88;7.97;;;15.00;92.20;;;;;;22546858;26;20093;-46
2024/04/24 10:27:12;;;;;;;9.23;7.70;;;13.60;92.70;;;;;;22573044;26;20030;-46
2024/04/24 10:37:14;;;;;;;11.00;9.55;;;10.50;96.30;;;;;;22560265;26;20035;-46
2024/04/24 10:47:17;;;;;;;14.90;10.98;;;9.00;99.40;;;;;;22560002;26;20372;-45
2024/04/24 10:57:30;;;;;;;12.82;9.85;;;6.90;99.90;;;;;;22562620;26;20431;-44
2024/04/24 11:07:32;;;;;;;13.30;10.27;;;6.00;99.90;;;;;;22566537;26;20097;-45
2024/04/24 11:17:34;;;;;;;19.85;13.10;;;5.90;99.90;;;;;;22549178;26;20026;-46
2024/04/24 11:27:36;;;;;;;127.88;19.80;;;5.70;99.90;;;;;;22560170;26;20030;-46
2024/04/24 11:37:38;;;;;;;47.08;13.30;;;5.10;99.90;;;;;;22562286;26;20050;-46
2024/04/24 11:47:40;;;;;;;20.27;12.30;;;5.00;99.90;;;;;;22554453;26;20023;-46
2024/04/24 11:57:43;;;;;;;18.13;13.45;;;5.90;99.90;;;;;;22558860;26;20034;-44
2024/04/24 12:07:45;;;;;;;19.60;12.82;;;6.40;99.90;;;;;;22550832;26;20030;-44
2024/04/24 12:17:47;;;;;;;13.75;10.80;;;7.70;99.90;;;;;;22554711;26;20081;-46
2024/04/24 12:27:49;;;;;;;16.52;12.50;;;7.30;99.90;;;;;;22557727;26;20062;-44
2024/04/24 12:37:51;;;;;;;63.10;16.27;;;6.20;99.90;;;;;;22548282;26;20030;-46
2024/04/24 12:47:53;;;;;;;18.77;13.48;;;5.00;99.90;;;;;;22550659;26;20031;-44
2024/04/24 12:57:55;;;;;;;22.30;15.38;;;4.20;99.90;;;;;;22545004;26;20066;-46
2024/04/24 13:08:00;;;;;;;24.13;16.67;;;4.10;99.90;;;;;;22100055;26;20000;-44
2024/04/24 13:18:02;;;;;;;22.15;15.65;;;4.50;99.90;;;;;;22210218;26;20086;-44
2024/04/24 13:28:04;;;;;;;21.95;14.63;;;4.70;99.90;;;;;;22218505;26;20126;-44
2024/04/24 13:38:07;;;;;;;16.48;11.57;;;5.30;99.90;;;;;;22470814;26;19998;-44
2024/04/24 13:48:09;;;;;;;19.65;14.30;;;5.80;99.90;;;;;;22544036;26;20062;-44
2024/04/24 13:58:11;;;;;;;28.02;18.67;;;5.50;99.90;;;;;;22557205;26;20026;-44
2024/04/24 14:08:12;;;;;;;324.30;29.38;;;4.80;99.90;;;;;;22558968;26;20476;-44
2024/04/24 14:18:14;;;;;;;167.95;22.83;;;4.30;99.90;;;;;;22544715;26;20109;-44
2024/04/24 14:28:17;;;;;;;25.75;16.83;;;4.10;99.90;;;;;;22491972;26;20031;-45
2024/04/24 14:38:22;;;;;;;57.65;19.42;;;4.00;99.90;;;;;;22544428;26;20026;-44
2024/04/24 14:48:26;;;;;;;241.77;23.55;;;3.70;99.90;;;;;;22551077;26;21780;-47
2024/04/24 14:58:28;;;;;;;578.97;38.85;;;3.40;99.90;;;;;;22543248;26;20031;-45
2024/04/24 15:08:30;;;;;;;307.50;29.02;;;3.30;99.90;;;;;;22551784;26;20038;-46
2024/04/24 15:18:35;;;;;;;35.13;14.68;;;3.40;99.90;;;;;;22523996;26;20046;-45
2024/04/24 15:28:39;;;;;;;159.98;17.67;;;3.30;99.90;;;;;;22563100;26;20630;-45
2024/04/24 15:38:44;;;;;;;59.22;15.70;;;3.20;99.90;;;;;;22562716;26;20088;-48
2024/04/24 15:48:46;;;;;;;17.55;11.10;;;3.30;99.90;;;;;;22552899;26;20093;-39
2024/04/24 15:58:48;;;;;;;107.85;14.88;;;3.20;99.90;;;;;;22559173;26;20092;-37
2024/04/24 16:08:49;;;;;;;58.53;12.75;;;3.10;99.90;;;;;;22549806;26;20046;-37
2024/04/24 16:18:51;;;;;;;14.93;10.52;;;3.00;99.90;;;;;;22548265;26;20096;-44
2024/04/24 16:28:53;;;;;;;17.40;12.05;;;2.70;99.90;;;;;;22554775;26;20034;-45
2024/04/24 16:38:55;;;;;;;14.88;10.82;;;2.60;99.90;;;;;;22558368;26;20023;-45
2024/04/24 16:48:57;;;;;;;19.15;12.00;;;2.50;99.90;;;;;;22554954;26;20120;-40
2024/04/24 16:58:59;;;;;;;19.42;12.88;;;2.50;99.90;;;;;;22665539;26;20026;-41
2024/04/24 17:09:01;;;;;;;17.95;12.15;;;2.70;99.90;;;;;;22640567;26;20031;-38
2024/04/24 17:19:06;;;;;;;15.18;10.85;;;3.00;99.90;;;;;;22706458;26;20003;-38
2024/04/24 17:29:08;;;;;;;13.18;9.65;;;3.00;99.90;;;;;;22672552;26;20123;-39
2024/04/24 17:39:09;;;;;;;23.92;13.75;;;3.30;99.90;;;;;;22456103;26;20078;-38
2024/04/24 17:49:11;;;;;;;32.15;13.93;;;3.00;99.90;;;;;;22404437;26;20027;-38
2024/04/24 17:59:13;;;;;;;27.02;16.30;;;2.80;99.90;;;;;;22478058;26;20028;-38
2024/04/24 18:09:15;;;;;;;21.98;14.00;;;2.50;99.90;;;;;;22430176;26;20428;-38
2024/04/24 18:19:17;;;;;;;22.02;12.50;;;2.40;99.90;;;;;;22402499;26;20031;-38
2024/04/24 18:29:21;;;;;;;36.13;15.80;;;2.40;99.90;;;;;;22503358;26;20032;-38
2024/04/24 18:39:28;;;;;;;23.95;14.88;;;2.30;99.90;;;;;;22397562;26;20062;-38
2024/04/24 18:49:30;;;;;;;22.67;14.77;;;2.20;99.90;;;;;;22413618;26;20083;-39
2024/04/24 18:59:35;;;;;;;24.92;15.40;;;2.10;99.90;;;;;;22428611;26;20036;-41
2024/04/24 19:09:37;;;;;;;22.38;13.50;;;2.00;99.90;;;;;;22486436;26;20088;-38
2024/04/24 19:19:42;;;;;;;115.80;23.58;;;1.90;99.90;;;;;;22559733;26;20027;-39
2024/04/24 19:29:44;;;;;;;43.17;19.27;;;1.90;99.90;;;;;;22521034;26;20031;-40
2024/04/24 19:39:46;;;;;;;14.38;8.93;;;1.80;99.90;;;;;;22629311;26;20095;-42
2024/04/24 19:49:50;;;;;;;20.58;12.40;;;1.60;99.90;;;;;;22660161;26;20026;-40
2024/04/24 19:59:52;;;;;;;105.97;13.02;;;1.60;99.90;;;;;;22670125;26;20492;-38
2024/04/24 20:09:55;;;;;;;10.73;5.90;;;1.60;99.90;;;;;;22637967;26;20035;-38
2024/04/24 20:19:57;;;;;;;7.60;5.03;;;1.50;99.90;;;;;;22646555;26;20053;-38
2024/04/24 20:30:00;;;;;;;8.93;6.18;;;1.40;99.90;;;;;;22670799;26;20455;-38
2024/04/24 20:40:09;;;;;;;5.60;3.95;;;1.30;99.90;;;;;;22637413;26;20491;-39
2024/04/24 20:50:11;;;;;;;2.92;1.67;;;1.30;99.90;;;;;;22657200;26;20030;-38
2024/04/24 21:00:14;;;;;;;2.65;1.73;;;1.30;99.90;;;;;;22707334;26;20026;-38
2024/04/24 21:10:17;;;;;;;4.50;3.08;;;1.20;99.90;;;;;;22704987;26;20061;-39
2024/04/24 21:20:19;;;;;;;3.85;2.47;;;1.00;99.90;;;;;;22705369;26;20026;-38
2024/04/24 21:30:21;;;;;;;5.15;3.55;;;0.60;99.90;;;;;;22655404;26;20031;-38
2024/04/24 21:40:23;;;;;;;5.25;3.55;;;0.40;99.90;;;;;;22640650;26;20026;-38
2024/04/24 21:50:25;;;;;;;5.00;2.95;;;0.20;99.90;;;;;;22621301;26;20069;-38
2024/04/24 22:00:27;;;;;;;4.40;2.50;;;0.00;99.90;;;;;;22624004;26;20030;-38
2024/04/24 22:10:28;;;;;;;4.20;2.45;;;-0.20;99.90;;;;;;22608138;26;20030;-38
2024/04/24 22:20:30;;;;;;;4.95;2.60;;;-0.40;99.90;;;;;;22711939;26;20297;-38
2024/04/24 22:30:32;;;;;;;4.85;3.20;;;-0.50;99.90;;;;;;22716718;26;20022;-39
2024/04/24 22:40:34;;;;;;;5.47;3.40;;;-0.60;99.90;;;;;;22634850;26;20100;-38
2024/04/24 22:50:36;;;;;;;4.97;3.20;;;-0.80;99.90;;;;;;22664708;26;20076;-38
2024/04/24 23:00:38;;;;;;;5.35;3.28;;;-0.90;99.90;;;;;;22681749;26;20430;-38
2024/04/24 23:10:40;;;;;;;4.55;3.10;;;-1.10;99.90;;;;;;22681149;26;20038;-38
2024/04/24 23:20:41;;;;;;;4.68;2.97;;;-1.20;99.90;;;;;;22712912;26;20034;-38
2024/04/24 23:30:46;;;;;;;3.47;2.33;;;-1.20;99.90;;;;;;22656985;26;20046;-45
2024/04/24 23:40:48;;;;;;;4.35;2.00;;;-1.20;99.90;;;;;;22653186;26;20242;-45
2024/04/24 23:50:50;;;;;;;3.38;2.22;;;-1.30;99.90;;;;;;22661306;26;20030;-45
